sensor_id;sensor_type;location;lat;lon;timestamp;temperature;humidity
67157;SHT31;54086;50.126;8.710;2024-03-23T00:54:16;10.83;88.16
67157;SHT31;54086;50.126;8.710;2024-03-23T00:56:41;10.84;88.18
67157;SHT31;54086;50.126;8.710;2024-03-23T00:59:06;10.90;88.04
67157;SHT31;54086;50.126;8.710;2024-03-23T01:01:32;10.84;88.19
67157;SHT31;54086;50.126;8.710;2024-03-23T01:03:57;10.81;88.51
67157;SHT31;54086;50.126;8.710;2024-03-23T01:06:22;10.83;88.50
67157;SHT31;54086;50.126;8.710;2024-03-23T01:08:48;10.80;88.61
67157;SHT31;54086;50.126;8.710;2024-03-23T01:11:14;10.83;88.54
67157;SHT31;54086;50.126;8.710;2024-03-23T01:13:39;10.73;88.79
67157;SHT31;54086;50.126;8.710;2024-03-23T01:16:05;10.70;89.06
67157;SHT31;54086;50.126;8.710;2024-03-23T01:18:30;10.73;89.00
67157;SHT31;54086;50.126;8.710;2024-03-23T01:20:55;10.62;89.45
67157;SHT31;54086;50.126;8.710;2024-03-23T01:23:21;10.63;89.70
67157;SHT31;54086;50.126;8.710;2024-03-23T01:25:53;10.59;89.68
67157;SHT31;54086;50.126;8.710;2024-03-23T01:28:22;10.62;89.76
67157;SHT31;54086;50.126;8.710;2024-03-23T01:30:48;10.68;89.47
67157;SHT31;54086;50.126;8.710;2024-03-23T01:33:14;10.76;89.28
67157;SHT31;54086;50.126;8.710;2024-03-23T01:35:39;10.73;89.19
67157;SHT31;54086;50.126;8.710;2024-03-23T01:38:05;10.80;89.07
67157;SHT31;54086;50.126;8.710;2024-03-23T01:40:32;10.80;88.94
67157;SHT31;54086;50.126;8.710;2024-03-23T01:42:59;10.80;88.89
67157;SHT31;54086;50.126;8.710;2024-03-23T01:45:27;10.87;88.78
67157;SHT31;54086;50.126;8.710;2024-03-23T01:47:52;10.83;88.74
67157;SHT31;54086;50.126;8.710;2024-03-23T01:50:21;10.80;88.96
67157;SHT31;54086;50.126;8.710;2024-03-23T01:52:47;10.83;88.75
67157;SHT31;54086;50.126;8.710;2024-03-23T01:55:13;10.73;89.29
67157;SHT31;54086;50.126;8.710;2024-03-23T01:57:38;10.70;89.69
67157;SHT31;54086;50.126;8.710;2024-03-23T02:00:04;10.79;89.56
67157;SHT31;54086;50.126;8.710;2024-03-23T02:02:31;10.69;89.76
67157;SHT31;54086;50.126;8.710;2024-03-23T02:04:56;10.62;90.07
67157;SHT31;54086;50.126;8.710;2024-03-23T02:07:22;10.66;90.01
67157;SHT31;54086;50.126;8.710;2024-03-23T02:09:49;10.53;90.39
67157;SHT31;54086;50.126;8.710;2024-03-23T02:12:15;10.49;90.48
67157;SHT31;54086;50.126;8.710;2024-03-23T02:14:41;10.52;90.44
67157;SHT31;54086;50.126;8.710;2024-03-23T02:17:06;10.60;90.32
67157;SHT31;54086;50.126;8.710;2024-03-23T02:19:32;10.70;89.72
67157;SHT31;54086;50.126;8.710;2024-03-23T02:21:57;10.72;89.48
67157;SHT31;54086;50.126;8.710;2024-03-23T02:24:22;10.72;89.45
67157;SHT31;54086;50.126;8.710;2024-03-23T02:26:48;10.70;89.42
67157;SHT31;54086;50.126;8.710;2024-03-23T02:29:14;10.66;89.44
67157;SHT31;54086;50.126;8.710;2024-03-23T02:31:39;10.69;89.35
67157;SHT31;54086;50.126;8.710;2024-03-23T02:34:05;10.66;89.44
67157;SHT31;54086;50.126;8.710;2024-03-23T02:36:30;10.52;89.83
67157;SHT31;54086;50.126;8.710;2024-03-23T02:38:56;10.50;90.02
67157;SHT31;54086;50.126;8.710;2024-03-23T02:41:21;10.49;89.97
67157;SHT31;54086;50.126;8.710;2024-03-23T02:43:51;10.48;90.33
67157;SHT31;54086;50.126;8.710;2024-03-23T02:46:17;10.42;90.26
67157;SHT31;54086;50.126;8.710;2024-03-23T02:48:42;10.48;90.29
67157;SHT31;54086;50.126;8.710;2024-03-23T02:51:08;10.37;90.47
67157;SHT31;54086;50.126;8.710;2024-03-23T02:53:34;10.39;90.55
67157;SHT31;54086;50.126;8.710;2024-03-23T02:55:59;10.37;90.31
67157;SHT31;54086;50.126;8.710;2024-03-23T02:58:25;10.35;90.46
67157;SHT31;54086;50.126;8.710;2024-03-23T03:00:50;10.38;90.44
67157;SHT31;54086;50.126;8.710;2024-03-23T03:03:16;10.42;90.30
67157;SHT31;54086;50.126;8.710;2024-03-23T03:05:41;10.41;90.44
67157;SHT31;54086;50.126;8.710;2024-03-23T03:08:06;10.44;90.28
67157;SHT31;54086;50.126;8.710;2024-03-23T03:10:32;10.46;90.16
67157;SHT31;54086;50.126;8.710;2024-03-23T03:13:00;10.39;90.40
67157;SHT31;54086;50.126;8.710;2024-03-23T03:15:25;10.49;90.33
67157;SHT31;54086;50.126;8.710;2024-03-23T03:17:51;10.49;90.08
67157;SHT31;54086;50.126;8.710;2024-03-23T03:20:16;10.45;89.95
67157;SHT31;54086;50.126;8.710;2024-03-23T03:22:43;10.35;90.20
67157;SHT31;54086;50.126;8.710;2024-03-23T03:25:09;10.27;90.45
67157;SHT31;54086;50.126;8.710;2024-03-23T03:27:34;10.21;90.58
67157;SHT31;54086;50.126;8.710;2024-03-23T03:30:00;10.27;90.64
67157;SHT31;54086;50.126;8.710;2024-03-23T03:32:28;10.29;90.51
67157;SHT31;54086;50.126;8.710;2024-03-23T03:34:54;10.31;90.44
67157;SHT31;54086;50.126;8.710;2024-03-23T03:37:19;10.29;90.36
67157;SHT31;54086;50.126;8.710;2024-03-23T03:39:45;10.34;90.33
67157;SHT31;54086;50.126;8.710;2024-03-23T03:42:10;10.32;90.36
67157;SHT31;54086;50.126;8.710;2024-03-23T03:44:36;10.38;90.21
67157;SHT31;54086;50.126;8.710;2024-03-23T03:47:02;10.35;90.34
67157;SHT31;54086;50.126;8.710;2024-03-23T03:49:27;10.44;90.20
67157;SHT31;54086;50.126;8.710;2024-03-23T03:51:53;10.41;90.05
67157;SHT31;54086;50.126;8.710;2024-03-23T03:54:18;10.48;89.79
67157;SHT31;54086;50.126;8.710;2024-03-23T03:56:43;10.48;90.00
67157;SHT31;54086;50.126;8.710;2024-03-23T03:59:09;10.45;90.11
67157;SHT31;54086;50.126;8.710;2024-03-23T04:01:34;10.32;90.42
67157;SHT31;54086;50.126;8.710;2024-03-23T04:04:00;10.25;90.60
67157;SHT31;54086;50.126;8.710;2024-03-23T04:06:26;10.14;90.88
67157;SHT31;54086;50.126;8.710;2024-03-23T04:08:51;10.21;90.78
67157;SHT31;54086;50.126;8.710;2024-03-23T04:11:17;10.10;91.26
67157;SHT31;54086;50.126;8.710;2024-03-23T04:13:43;10.08;91.32
67157;SHT31;54086;50.126;8.710;2024-03-23T04:16:08;10.00;91.60
67157;SHT31;54086;50.126;8.710;2024-03-23T04:18:34;10.07;91.96
67157;SHT31;54086;50.126;8.710;2024-03-23T04:21:00;10.15;91.45
67157;SHT31;54086;50.126;8.710;2024-03-23T04:23:25;10.17;91.56
67157;SHT31;54086;50.126;8.710;2024-03-23T04:25:51;9.98;92.05
67157;SHT31;54086;50.126;8.710;2024-03-23T04:28:18;9.98;92.53
67157;SHT31;54086;50.126;8.710;2024-03-23T04:30:44;9.88;93.10
67157;SHT31;54086;50.126;8.710;2024-03-23T04:33:09;9.67;91.79
67157;SHT31;54086;50.126;8.710;2024-03-23T04:35:34;9.64;92.21
67157;SHT31;54086;50.126;8.710;2024-03-23T04:38:00;9.63;92.52
67157;SHT31;54086;50.126;8.710;2024-03-23T04:40:26;9.53;92.59
67157;SHT31;54086;50.126;8.710;2024-03-23T04:42:51;9.39;92.91
67157;SHT31;54086;50.126;8.710;2024-03-23T04:45:16;9.50;93.48
67157;SHT31;54086;50.126;8.710;2024-03-23T04:47:42;9.40;92.64
67157;SHT31;54086;50.126;8.710;2024-03-23T04:50:08;9.38;92.90
67157;SHT31;54086;50.126;8.710;2024-03-23T04:52:35;9.28;91.08
67157;SHT31;54086;50.126;8.710;2024-03-23T04:55:01;9.15;90.53
67157;SHT31;54086;50.126;8.710;2024-03-23T04:57:26;9.11;90.83
67157;SHT31;54086;50.126;8.710;2024-03-23T04:59:51;8.98;90.64
67157;SHT31;54086;50.126;8.710;2024-03-23T05:02:17;8.97;90.73
67157;SHT31;54086;50.126;8.710;2024-03-23T05:04:42;8.81;89.62
67157;SHT31;54086;50.126;8.710;2024-03-23T05:07:07;8.75;89.70
67157;SHT31;54086;50.126;8.710;2024-03-23T05:09:33;8.80;89.99
67157;SHT31;54086;50.126;8.710;2024-03-23T05:11:59;8.82;89.18
67157;SHT31;54086;50.126;8.710;2024-03-23T05:14:25;8.74;88.99
67157;SHT31;54086;50.126;8.710;2024-03-23T05:16:52;8.80;89.24
67157;SHT31;54086;50.126;8.710;2024-03-23T05:19:17;8.78;89.26
67157;SHT31;54086;50.126;8.710;2024-03-23T05:21:42;8.85;89.81
67157;SHT31;54086;50.126;8.710;2024-03-23T05:24:08;8.88;89.83
67157;SHT31;54086;50.126;8.710;2024-03-23T05:26:34;8.88;89.66
67157;SHT31;54086;50.126;8.710;2024-03-23T05:28:59;8.84;90.20
67157;SHT31;54086;50.126;8.710;2024-03-23T05:31:30;8.77;89.25
67157;SHT31;54086;50.126;8.710;2024-03-23T05:33:55;8.60;88.22
67157;SHT31;54086;50.126;8.710;2024-03-23T05:36:21;8.70;89.36
67157;SHT31;54086;50.126;8.710;2024-03-23T05:38:47;8.64;88.78
67157;SHT31;54086;50.126;8.710;2024-03-23T05:41:13;8.53;87.53
67157;SHT31;54086;50.126;8.710;2024-03-23T05:43:38;8.67;88.92
67157;SHT31;54086;50.126;8.710;2024-03-23T05:46:04;8.78;88.55
67157;SHT31;54086;50.126;8.710;2024-03-23T05:48:31;8.82;87.95
67157;SHT31;54086;50.126;8.710;2024-03-23T05:50:56;8.87;88.44
67157;SHT31;54086;50.126;8.710;2024-03-23T05:53:23;8.81;88.31
67157;SHT31;54086;50.126;8.710;2024-03-23T05:55:49;8.82;88.16
67157;SHT31;54086;50.126;8.710;2024-03-23T05:58:16;8.78;88.22
67157;SHT31;54086;50.126;8.710;2024-03-23T06:00:42;8.75;88.05
67157;SHT31;54086;50.126;8.710;2024-03-23T06:03:08;8.78;87.46
67157;SHT31;54086;50.126;8.710;2024-03-23T06:05:33;8.82;87.57
67157;SHT31;54086;50.126;8.710;2024-03-23T06:07:58;8.75;87.13
67157;SHT31;54086;50.126;8.710;2024-03-23T06:10:24;8.85;87.51
67157;SHT31;54086;50.126;8.710;2024-03-23T06:12:50;8.81;87.55
67157;SHT31;54086;50.126;8.710;2024-03-23T06:15:21;8.81;86.91
67157;SHT31;54086;50.126;8.710;2024-03-23T06:17:48;8.81;86.93
67157;SHT31;54086;50.126;8.710;2024-03-23T06:20:15;8.74;86.84
67157;SHT31;54086;50.126;8.710;2024-03-23T06:22:41;8.59;85.16
67157;SHT31;54086;50.126;8.710;2024-03-23T06:25:07;8.63;85.99
67157;SHT31;54086;50.126;8.710;2024-03-23T06:27:33;8.49;84.84
67157;SHT31;54086;50.126;8.710;2024-03-23T06:30:00;8.41;85.20
67157;SHT31;54086;50.126;8.710;2024-03-23T06:32:27;8.44;85.33
67157;SHT31;54086;50.126;8.710;2024-03-23T06:34:53;8.50;85.15
67157;SHT31;54086;50.126;8.710;2024-03-23T06:37:19;8.32;84.64
67157;SHT31;54086;50.126;8.710;2024-03-23T06:39:46;8.23;84.67
67157;SHT31;54086;50.126;8.710;2024-03-23T06:42:13;8.14;84.96
67157;SHT31;54086;50.126;8.710;2024-03-23T06:44:38;8.05;84.73
67157;SHT31;54086;50.126;8.710;2024-03-23T06:47:04;7.96;85.30
67157;SHT31;54086;50.126;8.710;2024-03-23T06:49:30;8.00;85.21
67157;SHT31;54086;50.126;8.710;2024-03-23T06:51:56;7.98;85.04
67157;SHT31;54086;50.126;8.710;2024-03-23T06:54:21;8.02;84.94
67157;SHT31;54086;50.126;8.710;2024-03-23T06:56:47;7.93;84.48
67157;SHT31;54086;50.126;8.710;2024-03-23T06:59:12;7.81;84.14
67157;SHT31;54086;50.126;8.710;2024-03-23T07:01:38;7.82;84.81
67157;SHT31;54086;50.126;8.710;2024-03-23T07:04:04;7.91;84.70
67157;SHT31;54086;50.126;8.710;2024-03-23T07:06:30;7.95;84.35
67157;SHT31;54086;50.126;8.710;2024-03-23T07:08:56;8.06;83.97
67157;SHT31;54086;50.126;8.710;2024-03-23T07:11:22;8.14;83.49
67157;SHT31;54086;50.126;8.710;2024-03-23T07:13:50;8.25;83.43
67157;SHT31;54086;50.126;8.710;2024-03-23T07:16:15;8.33;83.50
67157;SHT31;54086;50.126;8.710;2024-03-23T07:18:41;8.43;83.33
67157;SHT31;54086;50.126;8.710;2024-03-23T07:21:06;8.46;83.85
67157;SHT31;54086;50.126;8.710;2024-03-23T07:23:32;8.51;83.97
67157;SHT31;54086;50.126;8.710;2024-03-23T07:26:03;8.67;83.64
67157;SHT31;54086;50.126;8.710;2024-03-23T07:28:30;8.46;82.34
67157;SHT31;54086;50.126;8.710;2024-03-23T07:31:12;8.43;81.61
67157;SHT31;54086;50.126;8.710;2024-03-23T07:33:43;8.56;82.41
67157;SHT31;54086;50.126;8.710;2024-03-23T07:36:09;8.26;81.78
67157;SHT31;54086;50.126;8.710;2024-03-23T07:38:35;8.22;82.36
67157;SHT31;54086;50.126;8.710;2024-03-23T07:41:07;8.33;81.61
67157;SHT31;54086;50.126;8.710;2024-03-23T07:43:32;8.39;80.50
67157;SHT31;54086;50.126;8.710;2024-03-23T07:45:58;8.46;80.80
67157;SHT31;54086;50.126;8.710;2024-03-23T07:48:24;8.50;80.66
67157;SHT31;54086;50.126;8.710;2024-03-23T07:51:03;8.61;80.86
67157;SHT31;54086;50.126;8.710;2024-03-23T07:53:30;8.81;80.17
67157;SHT31;54086;50.126;8.710;2024-03-23T07:55:57;8.70;80.13
67157;SHT31;54086;50.126;8.710;2024-03-23T07:58:23;8.37;80.27
67157;SHT31;54086;50.126;8.710;2024-03-23T08:00:48;8.40;80.13
67157;SHT31;54086;50.126;8.710;2024-03-23T08:03:14;8.59;79.61
67157;SHT31;54086;50.126;8.710;2024-03-23T08:05:39;9.12;78.01
67157;SHT31;54086;50.126;8.710;2024-03-23T08:08:05;9.05;77.85
67157;SHT31;54086;50.126;8.710;2024-03-23T08:10:30;8.95;77.98
67157;SHT31;54086;50.126;8.710;2024-03-23T08:12:55;8.85;78.86
67157;SHT31;54086;50.126;8.710;2024-03-23T08:15:21;8.80;78.92
67157;SHT31;54086;50.126;8.710;2024-03-23T08:17:46;8.97;79.35
67157;SHT31;54086;50.126;8.710;2024-03-23T08:20:12;8.64;79.49
67157;SHT31;54086;50.126;8.710;2024-03-23T08:22:37;8.60;79.87
67157;SHT31;54086;50.126;8.710;2024-03-23T08:25:03;9.50;77.68
67157;SHT31;54086;50.126;8.710;2024-03-23T08:27:28;10.12;76.74
67157;SHT31;54086;50.126;8.710;2024-03-23T08:29:53;10.25;75.13
67157;SHT31;54086;50.126;8.710;2024-03-23T08:32:19;9.70;76.78
67157;SHT31;54086;50.126;8.710;2024-03-23T08:34:45;10.08;75.80
67157;SHT31;54086;50.126;8.710;2024-03-23T08:37:10;10.77;74.23
67157;SHT31;54086;50.126;8.710;2024-03-23T08:39:35;11.26;72.97
67157;SHT31;54086;50.126;8.710;2024-03-23T08:42:01;11.78;71.81
67157;SHT31;54086;50.126;8.710;2024-03-23T08:44:26;11.95;71.17
67157;SHT31;54086;50.126;8.710;2024-03-23T08:46:52;11.06;73.18
67157;SHT31;54086;50.126;8.710;2024-03-23T08:49:20;11.07;73.56
67157;SHT31;54086;50.126;8.710;2024-03-23T08:51:46;10.58;74.51
67157;SHT31;54086;50.126;8.710;2024-03-23T08:54:11;10.93;73.94
67157;SHT31;54086;50.126;8.710;2024-03-23T08:56:36;11.18;73.35
67157;SHT31;54086;50.126;8.710;2024-03-23T08:59:02;12.00;72.10
67157;SHT31;54086;50.126;8.710;2024-03-23T09:01:27;11.93;71.13
67157;SHT31;54086;50.126;8.710;2024-03-23T09:03:53;12.53;70.01
67157;SHT31;54086;50.126;8.710;2024-03-23T09:06:18;12.85;69.24
67157;SHT31;54086;50.126;8.710;2024-03-23T09:08:43;13.38;67.46
67157;SHT31;54086;50.126;8.710;2024-03-23T09:11:11;13.32;66.48
67157;SHT31;54086;50.126;8.710;2024-03-23T09:13:37;13.29;67.13
67157;SHT31;54086;50.126;8.710;2024-03-23T09:16:05;12.54;68.42
67157;SHT31;54086;50.126;8.710;2024-03-23T09:18:32;11.57;69.31
67157;SHT31;54086;50.126;8.710;2024-03-23T09:21:00;11.28;71.78
67157;SHT31;54086;50.126;8.710;2024-03-23T09:23:25;11.69;71.31
67157;SHT31;54086;50.126;8.710;2024-03-23T09:25:51;12.23;69.66
67157;SHT31;54086;50.126;8.710;2024-03-23T09:28:16;12.80;69.35
67157;SHT31;54086;50.126;8.710;2024-03-23T09:30:42;12.92;68.07
67157;SHT31;54086;50.126;8.710;2024-03-23T09:33:13;12.63;67.74
67157;SHT31;54086;50.126;8.710;2024-03-23T09:35:39;13.19;66.74
67157;SHT31;54086;50.126;8.710;2024-03-23T09:38:05;12.54;66.63
67157;SHT31;54086;50.126;8.710;2024-03-23T09:40:32;13.32;65.49
67157;SHT31;54086;50.126;8.710;2024-03-23T09:42:58;12.76;65.44
67157;SHT31;54086;50.126;8.710;2024-03-23T09:45:27;12.81;64.82
67157;SHT31;54086;50.126;8.710;2024-03-23T09:47:55;13.50;63.43
67157;SHT31;54086;50.126;8.710;2024-03-23T09:50:21;12.69;63.69
67157;SHT31;54086;50.126;8.710;2024-03-23T09:52:46;11.67;66.08
67157;SHT31;54086;50.126;8.710;2024-03-23T09:55:12;12.27;66.25
67157;SHT31;54086;50.126;8.710;2024-03-23T09:57:37;11.69;67.26
67157;SHT31;54086;50.126;8.710;2024-03-23T10:00:03;11.17;66.98
67157;SHT31;54086;50.126;8.710;2024-03-23T10:02:29;11.64;67.31
67157;SHT31;54086;50.126;8.710;2024-03-23T10:04:55;11.74;66.42
67157;SHT31;54086;50.126;8.710;2024-03-23T10:07:22;11.09;67.50
67157;SHT31;54086;50.126;8.710;2024-03-23T10:09:48;11.27;67.34
67157;SHT31;54086;50.126;8.710;2024-03-23T10:12:14;11.28;65.71
67157;SHT31;54086;50.126;8.710;2024-03-23T10:14:41;11.16;65.76
67157;SHT31;54086;50.126;8.710;2024-03-23T10:17:17;11.48;64.98
67157;SHT31;54086;50.126;8.710;2024-03-23T10:19:47;12.32;62.75
67157;SHT31;54086;50.126;8.710;2024-03-23T10:22:17;12.99;61.93
67157;SHT31;54086;50.126;8.710;2024-03-23T10:24:45;13.86;59.04
67157;SHT31;54086;50.126;8.710;2024-03-23T10:27:19;13.40;59.53
67157;SHT31;54086;50.126;8.710;2024-03-23T10:29:48;13.11;59.50
67157;SHT31;54086;50.126;8.710;2024-03-23T10:32:18;13.06;58.69
67157;SHT31;54086;50.126;8.710;2024-03-23T10:34:44;13.01;59.22
67157;SHT31;54086;50.126;8.710;2024-03-23T10:37:09;12.50;60.06
67157;SHT31;54086;50.126;8.710;2024-03-23T10:39:41;12.09;61.30
67157;SHT31;54086;50.126;8.710;2024-03-23T10:42:09;12.32;60.65
67157;SHT31;54086;50.126;8.710;2024-03-23T10:44:37;12.02;62.55
67157;SHT31;54086;50.126;8.710;2024-03-23T10:47:04;12.23;62.72
67157;SHT31;54086;50.126;8.710;2024-03-23T10:49:33;11.86;63.12
67157;SHT31;54086;50.126;8.710;2024-03-23T10:52:00;11.75;63.69
67157;SHT31;54086;50.126;8.710;2024-03-23T10:54:27;11.77;64.44
67157;SHT31;54086;50.126;8.710;2024-03-23T10:57:09;11.59;63.60
67157;SHT31;54086;50.126;8.710;2024-03-23T10:59:37;10.93;64.88
67157;SHT31;54086;50.126;8.710;2024-03-23T11:02:02;11.00;67.54
67157;SHT31;54086;50.126;8.710;2024-03-23T11:04:36;10.31;69.49
67157;SHT31;54086;50.126;8.710;2024-03-23T11:09:53;9.12;78.53
67157;SHT31;54086;50.126;8.710;2024-03-23T11:14:49;8.93;80.56
67157;SHT31;54086;50.126;8.710;2024-03-23T11:17:22;9.22;82.02
67157;SHT31;54086;50.126;8.710;2024-03-23T11:20:00;9.33;79.76
67157;SHT31;54086;50.126;8.710;2024-03-23T11:22:45;9.18;77.64
67157;SHT31;54086;50.126;8.710;2024-03-23T11:27:48;9.32;77.54
67157;SHT31;54086;50.126;8.710;2024-03-23T11:32:48;8.87;72.32
67157;SHT31;54086;50.126;8.710;2024-03-23T11:35:30;9.23;74.11
67157;SHT31;54086;50.126;8.710;2024-03-23T11:38:14;9.04;73.11
67157;SHT31;54086;50.126;8.710;2024-03-23T11:40:44;8.46;74.71
67157;SHT31;54086;50.126;8.710;2024-03-23T11:43:17;8.64;75.15
67157;SHT31;54086;50.126;8.710;2024-03-23T11:45:48;8.47;75.53
67157;SHT31;54086;50.126;8.710;2024-03-23T11:48:19;8.92;77.15
67157;SHT31;54086;50.126;8.710;2024-03-23T11:50:55;9.01;75.74
67157;SHT31;54086;50.126;8.710;2024-03-23T11:53:22;8.47;76.66
67157;SHT31;54086;50.126;8.710;2024-03-23T11:55:57;8.44;76.94
67157;SHT31;54086;50.126;8.710;2024-03-23T11:58:24;8.32;77.54
67157;SHT31;54086;50.126;8.710;2024-03-23T12:03:19;10.28;73.20
67157;SHT31;54086;50.126;8.710;2024-03-23T12:05:51;10.93;71.12
67157;SHT31;54086;50.126;8.710;2024-03-23T12:11:15;11.78;68.64
67157;SHT31;54086;50.126;8.710;2024-03-23T12:13:42;12.41;68.37
67157;SHT31;54086;50.126;8.710;2024-03-23T12:16:16;12.15;68.23
67157;SHT31;54086;50.126;8.710;2024-03-23T12:18:44;12.12;66.82
67157;SHT31;54086;50.126;8.710;2024-03-23T12:21:09;11.72;68.04
67157;SHT31;54086;50.126;8.710;2024-03-23T12:23:35;12.13;67.25
67157;SHT31;54086;50.126;8.710;2024-03-23T12:26:01;13.06;65.05
67157;SHT31;54086;50.126;8.710;2024-03-23T12:28:29;13.81;63.50
67157;SHT31;54086;50.126;8.710;2024-03-23T12:30:54;14.18;61.33
67157;SHT31;54086;50.126;8.710;2024-03-23T12:33:21;13.42;62.05
67157;SHT31;54086;50.126;8.710;2024-03-23T12:35:47;13.87;61.55
67157;SHT31;54086;50.126;8.710;2024-03-23T12:38:13;14.61;60.35
67157;SHT31;54086;50.126;8.710;2024-03-23T12:40:38;13.81;60.53
67157;SHT31;54086;50.126;8.710;2024-03-23T12:43:05;13.32;61.12
67157;SHT31;54086;50.126;8.710;2024-03-23T12:45:30;12.76;62.48
67157;SHT31;54086;50.126;8.710;2024-03-23T12:47:56;14.65;59.46
67157;SHT31;54086;50.126;8.710;2024-03-23T12:50:21;14.15;58.15
67157;SHT31;54086;50.126;8.710;2024-03-23T12:52:47;13.70;58.44
67157;SHT31;54086;50.126;8.710;2024-03-23T12:55:13;12.89;59.77
67157;SHT31;54086;50.126;8.710;2024-03-23T12:57:38;12.92;61.30
67157;SHT31;54086;50.126;8.710;2024-03-23T13:00:04;13.30;60.72
67157;SHT31;54086;50.126;8.710;2024-03-23T13:02:30;12.74;60.95
67157;SHT31;54086;50.126;8.710;2024-03-23T13:04:56;12.46;62.14
67157;SHT31;54086;50.126;8.710;2024-03-23T13:07:22;12.44;62.51
67157;SHT31;54086;50.126;8.710;2024-03-23T13:09:51;12.50;62.74
67157;SHT31;54086;50.126;8.710;2024-03-23T13:12:17;12.57;62.95
67157;SHT31;54086;50.126;8.710;2024-03-23T13:14:44;12.69;62.62
67157;SHT31;54086;50.126;8.710;2024-03-23T13:17:09;12.58;61.66
67157;SHT31;54086;50.126;8.710;2024-03-23T13:19:35;12.10;62.25
67157;SHT31;54086;50.126;8.710;2024-03-23T13:22:01;10.89;69.07
67157;SHT31;54086;50.126;8.710;2024-03-23T13:24:27;9.60;76.70
67157;SHT31;54086;50.126;8.710;2024-03-23T13:26:54;8.78;79.86
67157;SHT31;54086;50.126;8.710;2024-03-23T13:29:20;8.68;79.41
67157;SHT31;54086;50.126;8.710;2024-03-23T13:31:46;8.67;81.96
67157;SHT31;54086;50.126;8.710;2024-03-23T13:34:12;8.16;83.15
67157;SHT31;54086;50.126;8.710;2024-03-23T13:36:40;8.13;84.35
67157;SHT31;54086;50.126;8.710;2024-03-23T13:39:07;8.23;84.37
67157;SHT31;54086;50.126;8.710;2024-03-23T13:41:40;8.26;83.96
67157;SHT31;54086;50.126;8.710;2024-03-23T13:44:06;8.67;84.58
67157;SHT31;54086;50.126;8.710;2024-03-23T13:46:32;9.04;81.15
67157;SHT31;54086;50.126;8.710;2024-03-23T13:48:57;9.61;80.63
67157;SHT31;54086;50.126;8.710;2024-03-23T13:51:24;10.73;78.70
67157;SHT31;54086;50.126;8.710;2024-03-23T13:53:52;11.64;75.02
67157;SHT31;54086;50.126;8.710;2024-03-23T13:56:18;12.92;71.74
67157;SHT31;54086;50.126;8.710;2024-03-23T13:58:43;12.99;69.76
67157;SHT31;54086;50.126;8.710;2024-03-23T14:01:12;12.33;70.94
67157;SHT31;54086;50.126;8.710;2024-03-23T14:03:38;13.26;70.48
67157;SHT31;54086;50.126;8.710;2024-03-23T14:06:03;14.58;68.48
67157;SHT31;54086;50.126;8.710;2024-03-23T14:08:29;14.51;66.64
67157;SHT31;54086;50.126;8.710;2024-03-23T14:10:57;14.13;67.16
67157;SHT31;54086;50.126;8.710;2024-03-23T14:13:22;14.14;65.48
67157;SHT31;54086;50.126;8.710;2024-03-23T14:15:53;11.78;69.81
67157;SHT31;54086;50.126;8.710;2024-03-23T14:18:18;11.35;72.05
67157;SHT31;54086;50.126;8.710;2024-03-23T14:20:43;11.00;71.38
67157;SHT31;54086;50.126;8.710;2024-03-23T14:23:09;11.71;70.15
67157;SHT31;54086;50.126;8.710;2024-03-23T14:25:34;11.68;70.94
67157;SHT31;54086;50.126;8.710;2024-03-23T14:28:00;10.68;73.24
67157;SHT31;54086;50.126;8.710;2024-03-23T14:30:25;9.87;74.87
67157;SHT31;54086;50.126;8.710;2024-03-23T14:32:50;9.67;75.65
67157;SHT31;54086;50.126;8.710;2024-03-23T14:35:16;9.53;76.13
67157;SHT31;54086;50.126;8.710;2024-03-23T14:37:42;10.62;74.00
67157;SHT31;54086;50.126;8.710;2024-03-23T14:40:08;10.70;72.82
67157;SHT31;54086;50.126;8.710;2024-03-23T14:42:33;11.10;72.75
67157;SHT31;54086;50.126;8.710;2024-03-23T14:44:59;11.35;70.83
67157;SHT31;54086;50.126;8.710;2024-03-23T14:47:24;11.47;70.94
67157;SHT31;54086;50.126;8.710;2024-03-23T14:49:50;11.10;71.62
67157;SHT31;54086;50.126;8.710;2024-03-23T14:52:16;11.52;72.07
67157;SHT31;54086;50.126;8.710;2024-03-23T14:54:43;11.45;71.93
67157;SHT31;54086;50.126;8.710;2024-03-23T14:57:08;11.10;72.11
67157;SHT31;54086;50.126;8.710;2024-03-23T14:59:35;10.73;72.34
67157;SHT31;54086;50.126;8.710;2024-03-23T15:02:00;10.70;72.87
67157;SHT31;54086;50.126;8.710;2024-03-23T15:04:26;10.97;72.57
67157;SHT31;54086;50.126;8.710;2024-03-23T15:06:51;11.17;72.27
67157;SHT31;54086;50.126;8.710;2024-03-23T15:09:17;11.26;71.12
67157;SHT31;54086;50.126;8.710;2024-03-23T15:11:43;10.87;72.02
67157;SHT31;54086;50.126;8.710;2024-03-23T15:14:08;10.60;72.46
67157;SHT31;54086;50.126;8.710;2024-03-23T15:16:35;11.07;71.02
67157;SHT31;54086;50.126;8.710;2024-03-23T15:19:01;10.81;70.61
67157;SHT31;54086;50.126;8.710;2024-03-23T15:21:26;10.58;70.63
67157;SHT31;54086;50.126;8.710;2024-03-23T15:23:52;10.29;71.27
67157;SHT31;54086;50.126;8.710;2024-03-23T15:26:17;10.22;71.29
67157;SHT31;54086;50.126;8.710;2024-03-23T15:28:42;10.29;71.39
67157;SHT31;54086;50.126;8.710;2024-03-23T15:31:24;9.83;70.57
67157;SHT31;54086;50.126;8.710;2024-03-23T15:33:49;10.07;71.63
67157;SHT31;54086;50.126;8.710;2024-03-23T15:36:15;9.97;72.32
67157;SHT31;54086;50.126;8.710;2024-03-23T15:38:40;9.90;72.09
67157;SHT31;54086;50.126;8.710;2024-03-23T15:41:06;10.08;72.28
67157;SHT31;54086;50.126;8.710;2024-03-23T15:43:32;10.10;70.99
67157;SHT31;54086;50.126;8.710;2024-03-23T15:48:31;10.41;71.26
67157;SHT31;54086;50.126;8.710;2024-03-23T15:50:58;8.89;76.66
67157;SHT31;54086;50.126;8.710;2024-03-23T15:53:25;7.27;82.17
67157;SHT31;54086;50.126;8.710;2024-03-23T15:58:22;6.83;86.10
67157;SHT31;54086;50.126;8.710;2024-03-23T16:00:57;6.99;86.48
67157;SHT31;54086;50.126;8.710;2024-03-23T16:03:23;7.01;86.52
67157;SHT31;54086;50.126;8.710;2024-03-23T16:05:56;7.27;85.52
67157;SHT31;54086;50.126;8.710;2024-03-23T16:08:22;7.47;84.84
67157;SHT31;54086;50.126;8.710;2024-03-23T16:10:48;7.61;86.13
67157;SHT31;54086;50.126;8.710;2024-03-23T16:13:14;7.55;83.45
67157;SHT31;54086;50.126;8.710;2024-03-23T16:15:40;7.61;84.45
67157;SHT31;54086;50.126;8.710;2024-03-23T16:18:05;7.62;83.65
67157;SHT31;54086;50.126;8.710;2024-03-23T16:20:31;7.72;83.67
67157;SHT31;54086;50.126;8.710;2024-03-23T16:23:00;7.77;80.12
67157;SHT31;54086;50.126;8.710;2024-03-23T16:25:25;7.69;79.29
67157;SHT31;54086;50.126;8.710;2024-03-23T16:27:51;7.68;80.08
67157;SHT31;54086;50.126;8.710;2024-03-23T16:30:16;7.78;80.48
67157;SHT31;54086;50.126;8.710;2024-03-23T16:32:42;7.79;80.79
67157;SHT31;54086;50.126;8.710;2024-03-23T16:35:07;8.06;81.77
67157;SHT31;54086;50.126;8.710;2024-03-23T16:37:36;7.91;81.20
67157;SHT31;54086;50.126;8.710;2024-03-23T16:40:01;7.93;81.51
67157;SHT31;54086;50.126;8.710;2024-03-23T16:42:27;8.05;80.78
67157;SHT31;54086;50.126;8.710;2024-03-23T16:44:53;8.00;80.45
67157;SHT31;54086;50.126;8.710;2024-03-23T16:47:18;7.93;79.48